sensor_id;sensor_type;location;lat;lon;timestamp;temperature;humidity
32522;DHT22;18963;51.504;5.316;2024-03-23T00:54:31;6.20;99.90
32522;DHT22;18963;51.504;5.316;2024-03-23T00:56:57;6.20;99.90
32522;DHT22;18963;51.504;5.316;2024-03-23T00:59:22;6.20;99.90
32522;DHT22;18963;51.504;5.316;2024-03-23T01:01:52;6.10;99.90
32522;DHT22;18963;51.504;5.316;2024-03-23T01:04:18;6.10;99.90
32522;DHT22;18963;51.504;5.316;2024-03-23T01:06:43;6.20;99.90
32522;DHT22;18963;51.504;5.316;2024-03-23T01:09:09;6.10;99.90
32522;DHT22;18963;51.504;5.316;2024-03-23T01:11:36;6.10;99.90
32522;DHT22;18963;51.504;5.316;2024-03-23T01:14:02;6.10;99.90
32522;DHT22;18963;51.504;5.316;2024-03-23T01:16:28;6.10;99.90
32522;DHT22;18963;51.504;5.316;2024-03-23T01:18:53;6.10;99.90
32522;DHT22;18963;51.504;5.316;2024-03-23T01:21:19;6.00;99.90
32522;DHT22;18963;51.504;5.316;2024-03-23T01:23:44;6.10;99.90
32522;DHT22;18963;51.504;5.316;2024-03-23T01:26:10;6.00;99.90
32522;DHT22;18963;51.504;5.316;2024-03-23T01:28:35;6.00;99.90
32522;DHT22;18963;51.504;5.316;2024-03-23T01:31:02;6.00;99.90
32522;DHT22;18963;51.504;5.316;2024-03-23T01:33:27;6.00;99.90
32522;DHT22;18963;51.504;5.316;2024-03-23T01:35:52;6.00;99.90
32522;DHT22;18963;51.504;5.316;2024-03-23T01:38:18;6.00;99.90
32522;DHT22;18963;51.504;5.316;2024-03-23T01:40:43;6.00;99.90
32522;DHT22;18963;51.504;5.316;2024-03-23T01:43:09;6.00;99.90
32522;DHT22;18963;51.504;5.316;2024-03-23T01:45:34;6.00;99.90
32522;DHT22;18963;51.504;5.316;2024-03-23T01:48:00;6.00;99.90
32522;DHT22;18963;51.504;5.316;2024-03-23T01:50:26;6.00;99.90
32522;DHT22;18963;51.504;5.316;2024-03-23T01:52:52;6.00;99.90
32522;DHT22;18963;51.504;5.316;2024-03-23T01:55:17;6.00;99.90
32522;DHT22;18963;51.504;5.316;2024-03-23T01:57:43;6.00;99.90
32522;DHT22;18963;51.504;5.316;2024-03-23T02:00:08;6.00;99.90
32522;DHT22;18963;51.504;5.316;2024-03-23T02:02:46;6.00;99.90
32522;DHT22;18963;51.504;5.316;2024-03-23T02:05:12;6.00;99.90
32522;DHT22;18963;51.504;5.316;2024-03-23T02:07:41;6.00;99.90
32522;DHT22;18963;51.504;5.316;2024-03-23T02:10:08;6.10;99.90
32522;DHT22;18963;51.504;5.316;2024-03-23T02:12:35;6.10;99.90
32522;DHT22;18963;51.504;5.316;2024-03-23T02:15:00;6.00;99.90
32522;DHT22;18963;51.504;5.316;2024-03-23T02:17:26;6.10;99.90
32522;DHT22;18963;51.504;5.316;2024-03-23T02:19:51;6.00;99.90
32522;DHT22;18963;51.504;5.316;2024-03-23T02:22:17;6.10;99.90
32522;DHT22;18963;51.504;5.316;2024-03-23T02:24:43;6.00;99.90
32522;DHT22;18963;51.504;5.316;2024-03-23T02:27:08;6.00;99.90
32522;DHT22;18963;51.504;5.316;2024-03-23T02:29:34;6.00;99.90
32522;DHT22;18963;51.504;5.316;2024-03-23T02:31:59;6.00;99.90
32522;DHT22;18963;51.504;5.316;2024-03-23T02:34:25;6.00;99.90
32522;DHT22;18963;51.504;5.316;2024-03-23T02:36:50;5.90;99.90
32522;DHT22;18963;51.504;5.316;2024-03-23T02:39:16;5.90;99.90
32522;DHT22;18963;51.504;5.316;2024-03-23T02:41:41;5.90;99.90
32522;DHT22;18963;51.504;5.316;2024-03-23T02:44:07;5.90;99.90
32522;DHT22;18963;51.504;5.316;2024-03-23T02:46:33;5.80;99.90
32522;DHT22;18963;51.504;5.316;2024-03-23T02:48:58;5.80;99.90
32522;DHT22;18963;51.504;5.316;2024-03-23T02:51:24;5.80;99.90
32522;DHT22;18963;51.504;5.316;2024-03-23T02:53:49;5.80;99.90
32522;DHT22;18963;51.504;5.316;2024-03-23T02:56:15;5.70;99.90
32522;DHT22;18963;51.504;5.316;2024-03-23T02:58:44;5.70;99.90
32522;DHT22;18963;51.504;5.316;2024-03-23T03:01:10;5.70;99.90
32522;DHT22;18963;51.504;5.316;2024-03-23T03:03:35;5.70;99.90
32522;DHT22;18963;51.504;5.316;2024-03-23T03:06:01;5.60;99.90
32522;DHT22;18963;51.504;5.316;2024-03-23T03:08:26;5.60;99.90
32522;DHT22;18963;51.504;5.316;2024-03-23T03:10:52;5.60;99.90
32522;DHT22;18963;51.504;5.316;2024-03-23T03:13:17;5.60;99.90
32522;DHT22;18963;51.504;5.316;2024-03-23T03:15:43;5.60;99.90
32522;DHT22;18963;51.504;5.316;2024-03-23T03:18:09;5.60;99.90
32522;DHT22;18963;51.504;5.316;2024-03-23T03:20:38;5.50;99.90
32522;DHT22;18963;51.504;5.316;2024-03-23T03:23:04;5.50;99.90
32522;DHT22;18963;51.504;5.316;2024-03-23T03:25:30;5.40;99.90
32522;DHT22;18963;51.504;5.316;2024-03-23T03:27:55;5.30;99.90
32522;DHT22;18963;51.504;5.316;2024-03-23T03:30:21;5.30;99.90
32522;DHT22;18963;51.504;5.316;2024-03-23T03:32:46;5.20;99.90
32522;DHT22;18963;51.504;5.316;2024-03-23T03:35:12;5.10;99.90
32522;DHT22;18963;51.504;5.316;2024-03-23T03:37:37;5.10;99.90
32522;DHT22;18963;51.504;5.316;2024-03-23T03:40:03;4.90;99.90
32522;DHT22;18963;51.504;5.316;2024-03-23T03:42:28;4.80;99.90
32522;DHT22;18963;51.504;5.316;2024-03-23T03:44:54;4.80;99.90
32522;DHT22;18963;51.504;5.316;2024-03-23T03:47:19;4.70;99.90
32522;DHT22;18963;51.504;5.316;2024-03-23T03:49:45;4.60;99.90
32522;DHT22;18963;51.504;5.316;2024-03-23T03:52:10;4.60;99.90
32522;DHT22;18963;51.504;5.316;2024-03-23T03:54:36;4.50;99.90
32522;DHT22;18963;51.504;5.316;2024-03-23T03:57:01;4.40;99.90
32522;DHT22;18963;51.504;5.316;2024-03-23T03:59:27;4.40;99.90
32522;DHT22;18963;51.504;5.316;2024-03-23T04:01:52;4.30;99.90
32522;DHT22;18963;51.504;5.316;2024-03-23T04:04:18;4.30;99.90
32522;DHT22;18963;51.504;5.316;2024-03-23T04:06:43;4.20;99.90
32522;DHT22;18963;51.504;5.316;2024-03-23T04:09:09;4.20;99.90
32522;DHT22;18963;51.504;5.316;2024-03-23T04:11:35;4.20;99.90
32522;DHT22;18963;51.504;5.316;2024-03-23T04:14:01;4.10;99.90
32522;DHT22;18963;51.504;5.316;2024-03-23T04:16:27;4.10;99.90
32522;DHT22;18963;51.504;5.316;2024-03-23T04:18:53;4.00;99.90
32522;DHT22;18963;51.504;5.316;2024-03-23T04:21:19;3.90;99.90
32522;DHT22;18963;51.504;5.316;2024-03-23T04:23:44;3.80;99.90
32522;DHT22;18963;51.504;5.316;2024-03-23T04:26:10;3.80;99.90
32522;DHT22;18963;51.504;5.316;2024-03-23T04:28:36;3.70;99.90
32522;DHT22;18963;51.504;5.316;2024-03-23T04:31:04;3.60;99.90
32522;DHT22;18963;51.504;5.316;2024-03-23T04:33:30;3.60;99.90
32522;DHT22;18963;51.504;5.316;2024-03-23T04:35:56;3.50;99.90
32522;DHT22;18963;51.504;5.316;2024-03-23T04:38:22;3.50;99.90
32522;DHT22;18963;51.504;5.316;2024-03-23T04:40:54;3.40;99.90
32522;DHT22;18963;51.504;5.316;2024-03-23T04:43:20;3.40;99.90
32522;DHT22;18963;51.504;5.316;2024-03-23T04:45:45;3.30;99.90
32522;DHT22;18963;51.504;5.316;2024-03-23T04:48:11;3.30;99.90
32522;DHT22;18963;51.504;5.316;2024-03-23T04:50:36;3.20;99.90
32522;DHT22;18963;51.504;5.316;2024-03-23T04:53:02;3.30;99.90
32522;DHT22;18963;51.504;5.316;2024-03-23T04:55:28;3.30;99.90
32522;DHT22;18963;51.504;5.316;2024-03-23T04:57:53;3.40;99.90
32522;DHT22;18963;51.504;5.316;2024-03-23T05:00:19;3.30;99.90
32522;DHT22;18963;51.504;5.316;2024-03-23T05:02:44;3.30;99.90
32522;DHT22;18963;51.504;5.316;2024-03-23T05:05:11;3.20;99.90
32522;DHT22;18963;51.504;5.316;2024-03-23T05:07:36;3.30;99.90
32522;DHT22;18963;51.504;5.316;2024-03-23T05:10:02;3.30;99.90
32522;DHT22;18963;51.504;5.316;2024-03-23T05:12:28;3.30;99.90
32522;DHT22;18963;51.504;5.316;2024-03-23T05:14:54;3.20;99.90
32522;DHT22;18963;51.504;5.316;2024-03-23T05:17:19;3.10;99.90
32522;DHT22;18963;51.504;5.316;2024-03-23T05:19:44;3.10;99.90
32522;DHT22;18963;51.504;5.316;2024-03-23T05:22:10;3.10;99.90
32522;DHT22;18963;51.504;5.316;2024-03-23T05:24:35;3.10;99.90
32522;DHT22;18963;51.504;5.316;2024-03-23T05:27:01;3.10;99.90
32522;DHT22;18963;51.504;5.316;2024-03-23T05:29:27;3.10;99.90
32522;DHT22;18963;51.504;5.316;2024-03-23T05:31:52;3.00;99.90
32522;DHT22;18963;51.504;5.316;2024-03-23T05:34:18;3.00;99.90
32522;DHT22;18963;51.504;5.316;2024-03-23T05:36:43;3.00;99.90
32522;DHT22;18963;51.504;5.316;2024-03-23T05:39:09;3.00;99.90
32522;DHT22;18963;51.504;5.316;2024-03-23T05:41:34;2.90;99.90
32522;DHT22;18963;51.504;5.316;2024-03-23T05:44:02;3.00;99.90
32522;DHT22;18963;51.504;5.316;2024-03-23T05:46:27;3.00;99.90
32522;DHT22;18963;51.504;5.316;2024-03-23T05:48:53;3.00;99.90
32522;DHT22;18963;51.504;5.316;2024-03-23T05:51:19;3.10;99.90
32522;DHT22;18963;51.504;5.316;2024-03-23T05:53:44;3.10;99.90
32522;DHT22;18963;51.504;5.316;2024-03-23T05:56:10;3.10;99.90
32522;DHT22;18963;51.504;5.316;2024-03-23T05:58:35;3.20;99.90
32522;DHT22;18963;51.504;5.316;2024-03-23T06:01:01;3.30;99.90
32522;DHT22;18963;51.504;5.316;2024-03-23T06:03:27;3.30;99.90
32522;DHT22;18963;51.504;5.316;2024-03-23T06:05:54;3.30;99.90
32522;DHT22;18963;51.504;5.316;2024-03-23T06:08:19;3.30;99.90
32522;DHT22;18963;51.504;5.316;2024-03-23T06:10:45;3.40;99.90
32522;DHT22;18963;51.504;5.316;2024-03-23T06:13:11;3.40;99.90
32522;DHT22;18963;51.504;5.316;2024-03-23T06:15:37;3.60;99.90
32522;DHT22;18963;51.504;5.316;2024-03-23T06:18:03;3.80;99.90
32522;DHT22;18963;51.504;5.316;2024-03-23T06:20:29;4.10;99.90
32522;DHT22;18963;51.504;5.316;2024-03-23T06:22:54;4.30;99.90
32522;DHT22;18963;51.504;5.316;2024-03-23T06:25:20;4.40;99.90
32522;DHT22;18963;51.504;5.316;2024-03-23T06:27:45;4.50;99.90
32522;DHT22;18963;51.504;5.316;2024-03-23T06:30:11;4.50;99.90
32522;DHT22;18963;51.504;5.316;2024-03-23T06:32:37;4.50;99.90
32522;DHT22;18963;51.504;5.316;2024-03-23T06:35:02;4.50;99.90
32522;DHT22;18963;51.504;5.316;2024-03-23T06:37:34;4.60;99.90
32522;DHT22;18963;51.504;5.316;2024-03-23T06:39:59;4.60;99.90
32522;DHT22;18963;51.504;5.316;2024-03-23T06:42:25;4.70;99.90
32522;DHT22;18963;51.504;5.316;2024-03-23T06:44:50;4.70;99.90
32522;DHT22;18963;51.504;5.316;2024-03-23T06:47:16;4.80;99.90
32522;DHT22;18963;51.504;5.316;2024-03-23T06:49:41;4.90;99.90
32522;DHT22;18963;51.504;5.316;2024-03-23T06:52:07;4.90;99.90
32522;DHT22;18963;51.504;5.316;2024-03-23T06:54:32;4.90;99.90
32522;DHT22;18963;51.504;5.316;2024-03-23T06:56:58;4.90;99.90
32522;DHT22;18963;51.504;5.316;2024-03-23T06:59:23;4.90;99.90
32522;DHT22;18963;51.504;5.316;2024-03-23T07:01:49;4.90;99.90
32522;DHT22;18963;51.504;5.316;2024-03-23T07:04:15;5.00;99.90
32522;DHT22;18963;51.504;5.316;2024-03-23T07:06:44;5.10;99.90
32522;DHT22;18963;51.504;5.316;2024-03-23T07:09:10;5.20;99.90
32522;DHT22;18963;51.504;5.316;2024-03-23T07:11:36;5.40;99.90
32522;DHT22;18963;51.504;5.316;2024-03-23T07:14:01;5.50;99.90
32522;DHT22;18963;51.504;5.316;2024-03-23T07:16:28;5.60;99.90
32522;DHT22;18963;51.504;5.316;2024-03-23T07:18:53;5.60;99.90
32522;DHT22;18963;51.504;5.316;2024-03-23T07:21:19;5.60;99.90
32522;DHT22;18963;51.504;5.316;2024-03-23T07:23:44;5.60;99.90
32522;DHT22;18963;51.504;5.316;2024-03-23T07:26:10;5.50;99.90
32522;DHT22;18963;51.504;5.316;2024-03-23T07:28:36;5.50;99.90
32522;DHT22;18963;51.504;5.316;2024-03-23T07:31:11;5.60;99.90
32522;DHT22;18963;51.504;5.316;2024-03-23T07:33:37;5.80;99.90
32522;DHT22;18963;51.504;5.316;2024-03-23T07:36:03;6.00;99.90
32522;DHT22;18963;51.504;5.316;2024-03-23T07:38:29;6.20;99.90
32522;DHT22;18963;51.504;5.316;2024-03-23T07:43:29;6.60;99.90
32522;DHT22;18963;51.504;5.316;2024-03-23T07:45:55;6.80;99.90
32522;DHT22;18963;51.504;5.316;2024-03-23T07:48:21;7.00;99.90
32522;DHT22;18963;51.504;5.316;2024-03-23T07:50:55;7.10;99.90
32522;DHT22;18963;51.504;5.316;2024-03-23T07:53:21;7.30;99.90
32522;DHT22;18963;51.504;5.316;2024-03-23T07:55:52;7.50;99.90
32522;DHT22;18963;51.504;5.316;2024-03-23T07:58:17;7.60;99.90
32522;DHT22;18963;51.504;5.316;2024-03-23T08:00:43;7.80;99.90
32522;DHT22;18963;51.504;5.316;2024-03-23T08:03:08;8.00;99.90
32522;DHT22;18963;51.504;5.316;2024-03-23T08:05:34;8.20;99.90
32522;DHT22;18963;51.504;5.316;2024-03-23T08:08:00;8.50;99.90
32522;DHT22;18963;51.504;5.316;2024-03-23T08:10:25;8.70;99.90
32522;DHT22;18963;51.504;5.316;2024-03-23T08:12:50;8.90;99.90
32522;DHT22;18963;51.504;5.316;2024-03-23T08:15:16;9.00;99.90
32522;DHT22;18963;51.504;5.316;2024-03-23T08:17:41;9.10;99.90
32522;DHT22;18963;51.504;5.316;2024-03-23T08:20:07;9.10;99.90
32522;DHT22;18963;51.504;5.316;2024-03-23T08:22:33;9.20;99.90
32522;DHT22;18963;51.504;5.316;2024-03-23T08:24:58;9.30;99.90
32522;DHT22;18963;51.504;5.316;2024-03-23T08:27:24;9.40;99.90
32522;DHT22;18963;51.504;5.316;2024-03-23T08:29:49;9.60;99.90
32522;DHT22;18963;51.504;5.316;2024-03-23T08:32:15;9.70;99.90
32522;DHT22;18963;51.504;5.316;2024-03-23T08:34:42;10.00;99.90
32522;DHT22;18963;51.504;5.316;2024-03-23T08:37:07;10.10;99.90
32522;DHT22;18963;51.504;5.316;2024-03-23T08:39:33;10.20;99.90
32522;DHT22;18963;51.504;5.316;2024-03-23T08:41:58;10.30;99.90
32522;DHT22;18963;51.504;5.316;2024-03-23T08:44:24;10.40;99.90
32522;DHT22;18963;51.504;5.316;2024-03-23T08:46:49;10.60;99.90
32522;DHT22;18963;51.504;5.316;2024-03-23T08:49:14;10.70;99.90
32522;DHT22;18963;51.504;5.316;2024-03-23T08:51:40;10.70;99.90
32522;DHT22;18963;51.504;5.316;2024-03-23T08:54:05;10.60;99.90
32522;DHT22;18963;51.504;5.316;2024-03-23T08:56:31;10.10;99.90
32522;DHT22;18963;51.504;5.316;2024-03-23T08:58:56;9.60;99.90
32522;DHT22;18963;51.504;5.316;2024-03-23T09:01:22;8.90;99.90
32522;DHT22;18963;51.504;5.316;2024-03-23T09:03:48;8.10;99.90
32522;DHT22;18963;51.504;5.316;2024-03-23T09:06:14;7.50;99.90
32522;DHT22;18963;51.504;5.316;2024-03-23T09:08:40;6.90;99.90
32522;DHT22;18963;51.504;5.316;2024-03-23T09:11:06;6.50;99.90
32522;DHT22;18963;51.504;5.316;2024-03-23T09:13:33;6.30;99.90
32522;DHT22;18963;51.504;5.316;2024-03-23T09:15:58;6.10;99.90
32522;DHT22;18963;51.504;5.316;2024-03-23T09:18:24;6.00;99.90
32522;DHT22;18963;51.504;5.316;2024-03-23T09:20:49;6.00;99.90
32522;DHT22;18963;51.504;5.316;2024-03-23T09:23:15;6.10;99.90
32522;DHT22;18963;51.504;5.316;2024-03-23T09:25:40;6.30;99.90
32522;DHT22;18963;51.504;5.316;2024-03-23T09:28:06;6.70;99.90
32522;DHT22;18963;51.504;5.316;2024-03-23T09:30:34;7.10;99.90
32522;DHT22;18963;51.504;5.316;2024-03-23T09:32:59;7.60;99.90
32522;DHT22;18963;51.504;5.316;2024-03-23T09:35:26;8.10;99.90
32522;DHT22;18963;51.504;5.316;2024-03-23T09:37:51;8.50;99.90
32522;DHT22;18963;51.504;5.316;2024-03-23T09:40:17;8.90;99.90
32522;DHT22;18963;51.504;5.316;2024-03-23T09:42:43;9.30;99.90
32522;DHT22;18963;51.504;5.316;2024-03-23T09:45:19;9.70;99.90
32522;DHT22;18963;51.504;5.316;2024-03-23T09:47:46;10.00;99.90
32522;DHT22;18963;51.504;5.316;2024-03-23T09:50:12;10.20;99.90
32522;DHT22;18963;51.504;5.316;2024-03-23T09:52:37;10.50;99.90
32522;DHT22;18963;51.504;5.316;2024-03-23T09:55:03;10.60;99.90
32522;DHT22;18963;51.504;5.316;2024-03-23T09:57:29;10.80;99.90
32522;DHT22;18963;51.504;5.316;2024-03-23T09:59:54;11.00;99.90
32522;DHT22;18963;51.504;5.316;2024-03-23T10:02:21;10.80;99.90
32522;DHT22;18963;51.504;5.316;2024-03-23T10:04:48;10.50;99.90
32522;DHT22;18963;51.504;5.316;2024-03-23T10:07:14;10.00;99.90
32522;DHT22;18963;51.504;5.316;2024-03-23T10:09:40;9.50;99.90
32522;DHT22;18963;51.504;5.316;2024-03-23T10:12:09;9.10;99.90
32522;DHT22;18963;51.504;5.316;2024-03-23T10:14:35;8.90;99.90
32522;DHT22;18963;51.504;5.316;2024-03-23T10:17:11;9.00;99.90
32522;DHT22;18963;51.504;5.316;2024-03-23T10:19:39;9.20;99.90
32522;DHT22;18963;51.504;5.316;2024-03-23T10:22:05;9.50;99.90
32522;DHT22;18963;51.504;5.316;2024-03-23T10:24:31;9.90;99.90
32522;DHT22;18963;51.504;5.316;2024-03-23T10:26:57;10.20;99.90
32522;DHT22;18963;51.504;5.316;2024-03-23T10:29:22;10.50;99.90
32522;DHT22;18963;51.504;5.316;2024-03-23T10:31:48;10.80;99.90
32522;DHT22;18963;51.504;5.316;2024-03-23T10:34:14;11.20;99.90
32522;DHT22;18963;51.504;5.316;2024-03-23T10:36:40;11.60;99.90
32522;DHT22;18963;51.504;5.316;2024-03-23T10:39:07;12.10;99.90
32522;DHT22;18963;51.504;5.316;2024-03-23T10:41:33;12.50;99.90
32522;DHT22;18963;51.504;5.316;2024-03-23T10:43:58;12.70;99.90
32522;DHT22;18963;51.504;5.316;2024-03-23T10:46:25;12.70;99.90
32522;DHT22;18963;51.504;5.316;2024-03-23T10:48:50;12.60;99.90
32522;DHT22;18963;51.504;5.316;2024-03-23T10:51:16;12.40;99.90
32522;DHT22;18963;51.504;5.316;2024-03-23T10:53:41;12.30;99.90
32522;DHT22;18963;51.504;5.316;2024-03-23T10:56:07;12.10;99.90
32522;DHT22;18963;51.504;5.316;2024-03-23T10:58:44;11.90;99.90
32522;DHT22;18963;51.504;5.316;2024-03-23T11:01:11;11.80;99.90
32522;DHT22;18963;51.504;5.316;2024-03-23T11:03:37;11.90;99.90
32522;DHT22;18963;51.504;5.316;2024-03-23T11:06:03;12.00;99.90
32522;DHT22;18963;51.504;5.316;2024-03-23T11:08:36;12.20;99.90
32522;DHT22;18963;51.504;5.316;2024-03-23T11:13:42;12.30;99.90
32522;DHT22;18963;51.504;5.316;2024-03-23T11:18:39;11.90;99.90
32522;DHT22;18963;51.504;5.316;2024-03-23T11:21:06;11.80;99.90
32522;DHT22;18963;51.504;5.316;2024-03-23T11:23:31;11.50;99.90
32522;DHT22;18963;51.504;5.316;2024-03-23T11:25:57;11.40;99.90
32522;DHT22;18963;51.504;5.316;2024-03-23T11:28:22;11.40;99.90
32522;DHT22;18963;51.504;5.316;2024-03-23T11:30:48;11.40;99.90
32522;DHT22;18963;51.504;5.316;2024-03-23T11:33:13;11.20;99.90
32522;DHT22;18963;51.504;5.316;2024-03-23T11:35:40;10.90;99.90
32522;DHT22;18963;51.504;5.316;2024-03-23T11:38:18;10.50;99.90
32522;DHT22;18963;51.504;5.316;2024-03-23T11:40:44;10.20;99.90
32522;DHT22;18963;51.504;5.316;2024-03-23T11:43:19;10.00;99.90
32522;DHT22;18963;51.504;5.316;2024-03-23T11:45:49;9.80;99.90
32522;DHT22;18963;51.504;5.316;2024-03-23T11:48:19;9.60;99.90
32522;DHT22;18963;51.504;5.316;2024-03-23T11:50:45;9.40;99.90
32522;DHT22;18963;51.504;5.316;2024-03-23T11:55:43;9.00;99.90
32522;DHT22;18963;51.504;5.316;2024-03-23T11:58:09;8.80;99.90
32522;DHT22;18963;51.504;5.316;2024-03-23T12:00:35;8.50;99.90
32522;DHT22;18963;51.504;5.316;2024-03-23T12:03:03;8.30;99.90
32522;DHT22;18963;51.504;5.316;2024-03-23T12:05:29;8.10;99.90
32522;DHT22;18963;51.504;5.316;2024-03-23T12:07:55;7.90;99.90
32522;DHT22;18963;51.504;5.316;2024-03-23T12:10:21;7.80;99.90
32522;DHT22;18963;51.504;5.316;2024-03-23T12:12:57;8.10;99.90
32522;DHT22;18963;51.504;5.316;2024-03-23T12:15:22;9.00;99.90
32522;DHT22;18963;51.504;5.316;2024-03-23T12:17:48;10.20;99.90
32522;DHT22;18963;51.504;5.316;2024-03-23T12:20:14;11.00;99.90
32522;DHT22;18963;51.504;5.316;2024-03-23T12:22:39;11.50;99.90
32522;DHT22;18963;51.504;5.316;2024-03-23T12:25:05;11.60;99.90
32522;DHT22;18963;51.504;5.316;2024-03-23T12:27:32;11.20;99.90
32522;DHT22;18963;51.504;5.316;2024-03-23T12:29:57;10.60;99.90
32522;DHT22;18963;51.504;5.316;2024-03-23T12:32:23;10.20;99.90
32522;DHT22;18963;51.504;5.316;2024-03-23T12:34:49;9.90;99.90
32522;DHT22;18963;51.504;5.316;2024-03-23T12:37:14;9.70;99.90
32522;DHT22;18963;51.504;5.316;2024-03-23T12:39:41;9.50;99.90
32522;DHT22;18963;51.504;5.316;2024-03-23T12:42:06;9.20;99.90
32522;DHT22;18963;51.504;5.316;2024-03-23T12:44:32;8.90;99.90
32522;DHT22;18963;51.504;5.316;2024-03-23T12:46:57;8.70;99.90
32522;DHT22;18963;51.504;5.316;2024-03-23T12:49:23;8.50;99.90
32522;DHT22;18963;51.504;5.316;2024-03-23T12:51:55;8.30;99.90
32522;DHT22;18963;51.504;5.316;2024-03-23T12:54:21;8.20;99.90
32522;DHT22;18963;51.504;5.316;2024-03-23T12:56:47;8.20;99.90
32522;DHT22;18963;51.504;5.316;2024-03-23T12:59:12;8.20;99.90
32522;DHT22;18963;51.504;5.316;2024-03-23T13:01:39;8.30;99.90
32522;DHT22;18963;51.504;5.316;2024-03-23T13:04:04;8.50;99.90
32522;DHT22;18963;51.504;5.316;2024-03-23T13:06:30;8.80;99.90
32522;DHT22;18963;51.504;5.316;2024-03-23T13:09:00;9.10;99.90
32522;DHT22;18963;51.504;5.316;2024-03-23T13:11:25;9.40;99.90
32522;DHT22;18963;51.504;5.316;2024-03-23T13:13:51;9.80;99.90
32522;DHT22;18963;51.504;5.316;2024-03-23T13:16:16;10.10;99.90
32522;DHT22;18963;51.504;5.316;2024-03-23T13:18:42;10.20;99.90
32522;DHT22;18963;51.504;5.316;2024-03-23T13:21:07;10.00;99.90
32522;DHT22;18963;51.504;5.316;2024-03-23T13:23:33;9.50;99.90
32522;DHT22;18963;51.504;5.316;2024-03-23T13:26:01;9.00;99.90
32522;DHT22;18963;51.504;5.316;2024-03-23T13:28:26;8.60;99.90
32522;DHT22;18963;51.504;5.316;2024-03-23T13:30:52;8.30;99.90
32522;DHT22;18963;51.504;5.316;2024-03-23T13:33:18;8.10;99.90
32522;DHT22;18963;51.504;5.316;2024-03-23T13:35:53;7.90;99.90
32522;DHT22;18963;51.504;5.316;2024-03-23T13:38:19;7.80;99.90
32522;DHT22;18963;51.504;5.316;2024-03-23T13:40:57;7.80;99.90
32522;DHT22;18963;51.504;5.316;2024-03-23T13:43:23;7.70;99.90
32522;DHT22;18963;51.504;5.316;2024-03-23T13:45:57;7.60;99.90
32522;DHT22;18963;51.504;5.316;2024-03-23T13:48:23;7.50;99.90
32522;DHT22;18963;51.504;5.316;2024-03-23T13:51:02;7.50;99.90
32522;DHT22;18963;51.504;5.316;2024-03-23T13:53:27;7.50;99.90
32522;DHT22;18963;51.504;5.316;2024-03-23T13:55:53;7.50;99.90
32522;DHT22;18963;51.504;5.316;2024-03-23T13:58:18;7.60;99.90
32522;DHT22;18963;51.504;5.316;2024-03-23T14:00:44;7.70;99.90
32522;DHT22;18963;51.504;5.316;2024-03-23T14:03:10;7.80;99.90
32522;DHT22;18963;51.504;5.316;2024-03-23T14:05:36;8.00;99.90
32522;DHT22;18963;51.504;5.316;2024-03-23T14:08:01;8.10;99.90
32522;DHT22;18963;51.504;5.316;2024-03-23T14:10:27;8.30;99.90
32522;DHT22;18963;51.504;5.316;2024-03-23T14:12:53;8.40;99.90
32522;DHT22;18963;51.504;5.316;2024-03-23T14:15:19;8.50;99.90
32522;DHT22;18963;51.504;5.316;2024-03-23T14:17:44;8.70;99.90
32522;DHT22;18963;51.504;5.316;2024-03-23T14:20:10;8.90;99.90
32522;DHT22;18963;51.504;5.316;2024-03-23T14:22:36;9.00;99.90
32522;DHT22;18963;51.504;5.316;2024-03-23T14:25:02;9.10;99.90
32522;DHT22;18963;51.504;5.316;2024-03-23T14:27:28;9.20;99.90
32522;DHT22;18963;51.504;5.316;2024-03-23T14:29:53;9.30;99.90
32522;DHT22;18963;51.504;5.316;2024-03-23T14:32:19;9.40;99.90
32522;DHT22;18963;51.504;5.316;2024-03-23T14:34:44;9.50;99.90
32522;DHT22;18963;51.504;5.316;2024-03-23T14:37:10;9.60;99.90
32522;DHT22;18963;51.504;5.316;2024-03-23T14:39:35;9.80;99.90
32522;DHT22;18963;51.504;5.316;2024-03-23T14:42:01;9.90;99.90
32522;DHT22;18963;51.504;5.316;2024-03-23T14:44:27;9.90;99.90
32522;DHT22;18963;51.504;5.316;2024-03-23T14:46:53;10.00;99.90
32522;DHT22;18963;51.504;5.316;2024-03-23T14:49:19;10.00;99.90
32522;DHT22;18963;51.504;5.316;2024-03-23T14:51:44;10.00;99.90
32522;DHT22;18963;51.504;5.316;2024-03-23T14:54:12;10.00;99.90
32522;DHT22;18963;51.504;5.316;2024-03-23T14:56:38;10.10;99.90
32522;DHT22;18963;51.504;5.316;2024-03-23T14:59:04;10.10;99.90
32522;DHT22;18963;51.504;5.316;2024-03-23T15:01:29;10.10;99.90
32522;DHT22;18963;51.504;5.316;2024-03-23T15:03:55;10.00;99.90
32522;DHT22;18963;51.504;5.316;2024-03-23T15:06:20;9.80;99.90
32522;DHT22;18963;51.504;5.316;2024-03-23T15:08:46;9.60;99.90
32522;DHT22;18963;51.504;5.316;2024-03-23T15:11:11;9.30;99.90
32522;DHT22;18963;51.504;5.316;2024-03-23T15:13:37;9.00;99.90
32522;DHT22;18963;51.504;5.316;2024-03-23T15:16:03;8.60;99.90
32522;DHT22;18963;51.504;5.316;2024-03-23T15:18:32;8.30;99.90
32522;DHT22;18963;51.504;5.316;2024-03-23T15:20:58;7.80;99.90
32522;DHT22;18963;51.504;5.316;2024-03-23T15:23:28;7.20;99.90
32522;DHT22;18963;51.504;5.316;2024-03-23T15:25:57;6.80;99.90
32522;DHT22;18963;51.504;5.316;2024-03-23T15:28:25;6.30;99.90
32522;DHT22;18963;51.504;5.316;2024-03-23T15:31:07;5.90;99.90
32522;DHT22;18963;51.504;5.316;2024-03-23T15:33:34;5.60;99.90
32522;DHT22;18963;51.504;5.316;2024-03-23T15:36:00;5.30;99.90
32522;DHT22;18963;51.504;5.316;2024-03-23T15:38:26;5.20;99.90
32522;DHT22;18963;51.504;5.316;2024-03-23T15:40:51;5.00;99.90
32522;DHT22;18963;51.504;5.316;2024-03-23T15:43:17;4.90;99.90
32522;DHT22;18963;51.504;5.316;2024-03-23T15:45:42;4.80;99.90
32522;DHT22;18963;51.504;5.316;2024-03-23T15:48:08;4.70;99.90
32522;DHT22;18963;51.504;5.316;2024-03-23T15:50:34;4.60;99.90
32522;DHT22;18963;51.504;5.316;2024-03-23T15:52:59;4.60;99.90
32522;DHT22;18963;51.504;5.316;2024-03-23T15:55:25;4.60;99.90
32522;DHT22;18963;51.504;5.316;2024-03-23T15:57:50;4.60;99.90
32522;DHT22;18963;51.504;5.316;2024-03-23T16:00:16;4.60;99.90
32522;DHT22;18963;51.504;5.316;2024-03-23T16:02:41;4.60;99.90
32522;DHT22;18963;51.504;5.316;2024-03-23T16:05:08;4.60;99.90
32522;DHT22;18963;51.504;5.316;2024-03-23T16:07:36;4.60;99.90
32522;DHT22;18963;51.504;5.316;2024-03-23T16:10:04;4.60;99.90
32522;DHT22;18963;51.504;5.316;2024-03-23T16:12:33;4.50;99.90
32522;DHT22;18963;51.504;5.316;2024-03-23T16:14:58;4.50;99.90
32522;DHT22;18963;51.504;5.316;2024-03-23T16:17:24;4.50;99.90
32522;DHT22;18963;51.504;5.316;2024-03-23T16:19:50;4.50;99.90
32522;DHT22;18963;51.504;5.316;2024-03-23T16:22:15;4.50;99.90
32522;DHT22;18963;51.504;5.316;2024-03-23T16:24:41;4.60;99.90
32522;DHT22;18963;51.504;5.316;2024-03-23T16:27:07;4.60;99.90
32522;DHT22;18963;51.504;5.316;2024-03-23T16:29:32;4.60;99.90
32522;DHT22;18963;51.504;5.316;2024-03-23T16:31:58;4.60;99.90
32522;DHT22;18963;51.504;5.316;2024-03-23T16:34:23;4.60;99.90
32522;DHT22;18963;51.504;5.316;2024-03-23T16:36:49;4.60;99.90
32522;DHT22;18963;51.504;5.316;2024-03-23T16:39:14;4.70;99.90